Time;durP1;ratioP1;P1;durP2;ratioP2;P2;SDS_P1;SDS_P2;PMS_P1;PMS_P2;Temp;Humidity;BMP_temperature;BMP_pressure;BME280_temperature;BME280_humidity;BME280_pressure;Samples;Min_cycle;Max_cycle;Signal;HPM_P1;HPM_P2
2021/12/09 00:02:13;;;;;;;46.90;17.83;;;;;;;;;;5056021;28;20029;-51
2021/12/09 00:04:41;;;;;;;49.25;17.48;;;;;;;;;;5060401;28;20143;-56
2021/12/09 00:07:07;;;;;;;51.25;18.55;;;;;;;;;;5061845;28;20044;-52
2021/12/09 00:09:33;;;;;;;41.80;17.38;;;;;;;;;;5056828;28;20036;-55
2021/12/09 00:11:59;;;;;;;43.13;16.67;;;;;;;;;;5059459;28;20058;-51
2021/12/09 00:14:27;;;;;;;51.17;17.58;;;;;;;;;;5056764;28;20167;-55
2021/12/09 00:16:54;;;;;;;48.08;17.80;;;;;;;;;;5052591;28;20404;-54
2021/12/09 00:19:21;;;;;;;46.03;18.48;;;;;;;;;;5053627;28;20026;-54
2021/12/09 00:21:47;;;;;;;45.65;18.50;;;;;;;;;;5066870;28;20032;-54
2021/12/09 00:24:13;;;;;;;48.33;18.17;;;;;;;;;;5052304;28;20028;-51
2021/12/09 00:26:39;;;;;;;44.72;17.67;;;;;;;;;;5049225;28;20051;-52
2021/12/09 00:29:06;;;;;;;46.70;17.58;;;;;;;;;;5051593;28;20021;-54
2021/12/09 00:31:32;;;;;;;46.22;18.33;;;;;;;;;;5052695;28;20449;-52
2021/12/09 00:34:00;;;;;;;43.05;17.55;;;;;;;;;;5052288;28;20033;-54
2021/12/09 00:36:36;;;;;;;45.45;17.17;;;;;;;;;;5052234;28;20052;-51
2021/12/09 00:39:02;;;;;;;48.85;16.95;;;;;;;;;;5047400;28;20079;-51
2021/12/09 00:41:28;;;;;;;51.70;17.35;;;;;;;;;;5047456;28;20061;-51
2021/12/09 00:43:54;;;;;;;45.70;17.17;;;;;;;;;;5045233;28;20061;-52
2021/12/09 00:46:21;;;;;;;44.95;18.13;;;;;;;;;;5050970;28;20067;-53
2021/12/09 00:48:47;;;;;;;54.30;19.50;;;;;;;;;;5051575;28;20032;-55
2021/12/09 00:51:13;;;;;;;47.40;18.23;;;;;;;;;;5052393;28;20119;-53
2021/12/09 00:53:39;;;;;;;50.97;19.38;;;;;;;;;;5051960;28;20042;-52
2021/12/09 00:56:05;;;;;;;42.10;18.42;;;;;;;;;;5051798;28;20055;-51
2021/12/09 00:58:31;;;;;;;50.38;17.60;;;;;;;;;;5055168;28;20028;-53
2021/12/09 01:00:57;;;;;;;50.72;18.92;;;;;;;;;;5049182;28;20128;-52
2021/12/09 01:03:23;;;;;;;58.72;19.05;;;;;;;;;;5056310;28;20082;-53
2021/12/09 01:05:49;;;;;;;43.67;18.88;;;;;;;;;;5053241;28;20494;-50
2021/12/09 01:08:16;;;;;;;48.35;19.08;;;;;;;;;;5057626;28;20086;-53
2021/12/09 01:10:42;;;;;;;62.65;20.67;;;;;;;;;;5054161;28;20031;-53
2021/12/09 01:13:08;;;;;;;55.42;18.58;;;;;;;;;;5054333;28;20047;-56
2021/12/09 01:15:35;;;;;;;48.95;19.05;;;;;;;;;;5051037;28;20036;-55
2021/12/09 01:18:01;;;;;;;49.30;17.15;;;;;;;;;;5058062;28;20052;-51
2021/12/09 01:20:27;;;;;;;51.10;19.75;;;;;;;;;;5053245;28;20067;-55
2021/12/09 01:22:54;;;;;;;54.55;18.77;;;;;;;;;;5052032;28;20028;-54
2021/12/09 01:25:21;;;;;;;58.90;20.10;;;;;;;;;;5044468;28;20021;-52
2021/12/09 01:27:49;;;;;;;49.80;19.08;;;;;;;;;;5053189;28;20474;-51
2021/12/09 01:30:17;;;;;;;53.35;18.40;;;;;;;;;;5044935;28;20417;-54
2021/12/09 01:32:49;;;;;;;48.83;18.20;;;;;;;;;;5051575;28;20033;-52
2021/12/09 01:35:16;;;;;;;51.35;18.92;;;;;;;;;;5040908;28;20411;-56
2021/12/09 01:37:42;;;;;;;59.65;20.88;;;;;;;;;;5059067;28;20072;-52
2021/12/09 01:40:09;;;;;;;52.28;18.65;;;;;;;;;;5053381;28;20072;-56
2021/12/09 01:42:35;;;;;;;56.28;18.65;;;;;;;;;;5052629;28;20032;-51
2021/12/09 01:45:01;;;;;;;54.33;19.33;;;;;;;;;;5054104;28;20483;-52
2021/12/09 01:47:27;;;;;;;61.72;18.75;;;;;;;;;;5051607;28;20369;-51
2021/12/09 01:49:54;;;;;;;57.22;19.30;;;;;;;;;;5050997;28;20037;-51
2021/12/09 01:52:20;;;;;;;46.88;18.67;;;;;;;;;;5051283;28;20036;-53
2021/12/09 01:54:46;;;;;;;54.22;19.48;;;;;;;;;;5051021;28;20025;-53
2021/12/09 01:57:12;;;;;;;56.53;19.95;;;;;;;;;;5043612;28;20105;-53
2021/12/09 01:59:38;;;;;;;53.53;19.60;;;;;;;;;;5049843;28;20107;-51
2021/12/09 02:02:04;;;;;;;48.53;20.05;;;;;;;;;;5050715;28;20036;-52
2021/12/09 02:04:30;;;;;;;49.25;18.55;;;;;;;;;;5050927;28;20386;-55
2021/12/09 02:06:56;;;;;;;54.10;19.65;;;;;;;;;;5050798;28;20459;-51
2021/12/09 02:09:22;;;;;;;55.40;17.95;;;;;;;;;;5050774;28;20071;-53
2021/12/09 02:11:49;;;;;;;54.20;19.40;;;;;;;;;;5050827;28;20021;-51
2021/12/09 02:14:15;;;;;;;47.97;19.70;;;;;;;;;;5050533;28;20044;-55
2021/12/09 02:16:41;;;;;;;52.78;19.10;;;;;;;;;;5053346;28;20087;-56
2021/12/09 02:19:11;;;;;;;46.15;18.50;;;;;;;;;;5054414;28;20112;-55
2021/12/09 02:21:37;;;;;;;55.10;19.65;;;;;;;;;;5054564;28;20029;-54
2021/12/09 02:24:05;;;;;;;55.22;19.27;;;;;;;;;;5054724;28;20074;-57
2021/12/09 02:26:33;;;;;;;59.45;20.17;;;;;;;;;;5048803;28;20029;-51
2021/12/09 02:29:00;;;;;;;54.53;20.48;;;;;;;;;;5054075;28;20021;-55
2021/12/09 02:31:26;;;;;;;55.80;19.90;;;;;;;;;;5054963;28;20416;-55
2021/12/09 02:33:52;;;;;;;53.35;19.40;;;;;;;;;;5054764;28;20108;-55
2021/12/09 02:36:19;;;;;;;56.53;20.48;;;;;;;;;;5054489;28;20493;-53
2021/12/09 02:38:45;;;;;;;54.15;19.23;;;;;;;;;;5053876;28;20040;-51
2021/12/09 02:41:17;;;;;;;57.97;20.65;;;;;;;;;;5054129;28;20120;-54
2021/12/09 02:43:44;;;;;;;49.80;19.17;;;;;;;;;;5048346;28;20043;-52
2021/12/09 02:46:10;;;;;;;51.53;19.83;;;;;;;;;;5054271;28;20342;-52
2021/12/09 02:48:36;;;;;;;59.63;20.10;;;;;;;;;;5050794;28;20111;-52
2021/12/09 02:51:03;;;;;;;57.08;19.98;;;;;;;;;;5054394;28;20029;-51
2021/12/09 02:53:29;;;;;;;52.25;19.70;;;;;;;;;;5053487;28;20070;-51
2021/12/09 02:55:55;;;;;;;64.45;21.90;;;;;;;;;;5053375;28;20533;-52
2021/12/09 02:58:21;;;;;;;51.15;19.77;;;;;;;;;;5051629;28;20024;-56
2021/12/09 03:01:08;;;;;;;57.42;19.35;;;;;;;;;;5052157;28;20421;-51
2021/12/09 03:03:34;;;;;;;56.03;19.02;;;;;;;;;;5052563;28;20029;-52
2021/12/09 03:06:01;;;;;;;55.58;20.48;;;;;;;;;;5050671;28;20109;-51
2021/12/09 03:08:35;;;;;;;51.63;18.80;;;;;;;;;;5055371;28;20083;-53
2021/12/09 03:11:03;;;;;;;54.42;20.23;;;;;;;;;;5051033;28;20025;-52
2021/12/09 03:13:29;;;;;;;55.63;18.33;;;;;;;;;;5048330;28;20061;-51
2021/12/09 03:15:55;;;;;;;51.17;19.55;;;;;;;;;;5054762;28;20456;-51
2021/12/09 03:18:21;;;;;;;50.00;18.13;;;;;;;;;;5050586;28;20040;-51
2021/12/09 03:20:47;;;;;;;53.90;18.90;;;;;;;;;;5060896;28;20056;-51
2021/12/09 03:23:13;;;;;;;56.40;20.58;;;;;;;;;;5053062;28;20088;-51
2021/12/09 03:25:42;;;;;;;56.58;18.52;;;;;;;;;;5054375;28;20452;-52
2021/12/09 03:28:08;;;;;;;48.33;18.08;;;;;;;;;;5046981;28;20036;-51
2021/12/09 03:30:33;;;;;;;53.08;18.95;;;;;;;;;;5059767;28;20033;-56
2021/12/09 03:32:59;;;;;;;57.95;19.77;;;;;;;;;;5055134;28;20030;-54
2021/12/09 03:35:26;;;;;;;68.38;19.77;;;;;;;;;;5061282;28;20085;-53
2021/12/09 03:37:52;;;;;;;58.83;21.40;;;;;;;;;;5056444;28;20088;-53
2021/12/09 03:40:18;;;;;;;55.10;19.33;;;;;;;;;;5065008;28;20075;-55
2021/12/09 03:42:45;;;;;;;51.13;19.75;;;;;;;;;;5061492;28;20047;-53
2021/12/09 03:45:11;;;;;;;59.40;20.42;;;;;;;;;;5058039;28;20035;-52
2021/12/09 03:47:38;;;;;;;55.10;20.55;;;;;;;;;;5055827;28;20060;-56
2021/12/09 03:50:05;;;;;;;65.85;21.48;;;;;;;;;;5059278;28;20021;-50
2021/12/09 03:52:31;;;;;;;59.15;21.88;;;;;;;;;;5062685;28;20053;-56
2021/12/09 03:54:58;;;;;;;58.28;22.35;;;;;;;;;;5054421;28;20056;-55
2021/12/09 03:57:24;;;;;;;53.35;20.90;;;;;;;;;;5051444;28;20623;-52
2021/12/09 03:59:50;;;;;;;56.47;20.60;;;;;;;;;;5050013;28;20062;-53
2021/12/09 04:02:17;;;;;;;58.70;21.27;;;;;;;;;;5050504;28;20033;-52
2021/12/09 04:04:43;;;;;;;56.83;22.27;;;;;;;;;;5053307;28;20469;-54
2021/12/09 04:07:09;;;;;;;60.90;21.33;;;;;;;;;;5054695;28;20033;-52
2021/12/09 04:09:35;;;;;;;54.88;19.38;;;;;;;;;;5049565;28;20025;-52
2021/12/09 04:12:01;;;;;;;58.47;21.88;;;;;;;;;;5054840;28;20036;-53
2021/12/09 04:14:27;;;;;;;64.43;21.42;;;;;;;;;;5054861;28;20028;-52
2021/12/09 04:16:53;;;;;;;56.85;20.17;;;;;;;;;;5055482;28;20512;-51
2021/12/09 04:19:22;;;;;;;58.47;21.63;;;;;;;;;;5056304;28;20099;-53
2021/12/09 04:21:48;;;;;;;53.63;21.58;;;;;;;;;;5050218;28;20343;-52
2021/12/09 04:24:16;;;;;;;53.45;19.75;;;;;;;;;;5056836;28;20033;-51
2021/12/09 04:26:43;;;;;;;64.43;22.98;;;;;;;;;;5049451;28;20106;-52
2021/12/09 04:29:10;;;;;;;56.92;20.65;;;;;;;;;;5050024;28;20115;-51
2021/12/09 04:31:37;;;;;;;56.15;20.95;;;;;;;;;;5051673;28;20028;-51
2021/12/09 04:34:03;;;;;;;54.72;20.23;;;;;;;;;;5054903;28;20043;-54
2021/12/09 04:36:29;;;;;;;55.47;20.13;;;;;;;;;;5052389;28;20025;-55
2021/12/09 04:38:55;;;;;;;57.22;21.58;;;;;;;;;;5048586;28;20067;-57
2021/12/09 04:41:21;;;;;;;62.55;21.55;;;;;;;;;;5052095;28;20032;-51
2021/12/09 04:43:48;;;;;;;58.97;20.65;;;;;;;;;;5051889;28;20033;-53
2021/12/09 04:46:14;;;;;;;59.28;21.90;;;;;;;;;;5051596;28;20029;-52
2021/12/09 04:48:40;;;;;;;55.08;19.10;;;;;;;;;;5051955;28;20028;-56
2021/12/09 04:51:06;;;;;;;55.45;20.08;;;;;;;;;;5052352;28;20025;-56
2021/12/09 04:53:33;;;;;;;49.88;20.10;;;;;;;;;;5051983;28;20120;-51
2021/12/09 04:55:59;;;;;;;55.95;20.40;;;;;;;;;;5052043;28;20028;-53
2021/12/09 04:58:25;;;;;;;61.30;21.40;;;;;;;;;;5051981;28;20040;-53
2021/12/09 05:00:52;;;;;;;62.78;20.58;;;;;;;;;;5059085;28;20025;-52
2021/12/09 05:03:18;;;;;;;55.35;19.83;;;;;;;;;;5051803;28;20116;-53
2021/12/09 05:05:46;;;;;;;51.90;19.90;;;;;;;;;;5051215;28;20033;-52
2021/12/09 05:08:14;;;;;;;53.70;20.20;;;;;;;;;;5052449;28;20469;-53
2021/12/09 05:11:27;;;;;;;59.63;21.40;;;;;;;;;;5052083;28;20036;-53
2021/12/09 05:13:36;;;;;;;61.85;20.65;;;;;;;;;;5056061;28;20045;-52
2021/12/09 05:16:03;;;;;;;66.32;22.70;;;;;;;;;;5051155;28;20135;-50
2021/12/09 05:18:32;;;;;;;54.50;20.48;;;;;;;;;;5054787;28;20052;-53
2021/12/09 05:20:58;;;;;;;63.40;20.02;;;;;;;;;;5054339;28;20389;-54
2021/12/09 05:23:25;;;;;;;54.40;19.90;;;;;;;;;;5056976;28;20025;-54
2021/12/09 05:25:51;;;;;;;61.00;20.27;;;;;;;;;;5048441;28;20025;-52
2021/12/09 05:28:18;;;;;;;57.50;20.27;;;;;;;;;;5059695;28;20112;-54
2021/12/09 05:33:30;;;;;;;52.97;21.70;;;;;;;;;;5058325;28;20055;-50
2021/12/09 05:35:56;;;;;;;62.80;21.23;;;;;;;;;;5058383;28;20150;-55
2021/12/09 05:38:22;;;;;;;64.32;22.15;;;;;;;;;;5049648;28;20059;-52
2021/12/09 05:40:49;;;;;;;54.95;21.15;;;;;;;;;;5055652;28;20032;-51
2021/12/09 05:43:16;;;;;;;59.65;20.25;;;;;;;;;;5052448;28;20025;-50
2021/12/09 05:45:42;;;;;;;55.80;19.67;;;;;;;;;;5058827;28;20017;-52
2021/12/09 05:48:10;;;;;;;58.17;20.67;;;;;;;;;;5050756;28;20372;-53
2021/12/09 05:50:36;;;;;;;55.38;20.55;;;;;;;;;;5051479;28;20021;-51
2021/12/09 05:53:02;;;;;;;53.90;20.45;;;;;;;;;;5047849;28;20034;-53
2021/12/09 05:55:28;;;;;;;59.75;20.83;;;;;;;;;;5053709;28;20025;-55
2021/12/09 05:57:54;;;;;;;53.88;21.50;;;;;;;;;;5058959;28;20114;-55
2021/12/09 06:00:20;;;;;;;58.17;20.83;;;;;;;;;;5063487;28;20528;-54
2021/12/09 06:02:46;;;;;;;53.55;20.85;;;;;;;;;;5043772;28;20029;-56
2021/12/09 06:05:12;;;;;;;60.70;21.05;;;;;;;;;;5051762;28;20381;-53
2021/12/09 06:07:38;;;;;;;58.95;21.15;;;;;;;;;;5052449;28;20215;-54
2021/12/09 06:10:05;;;;;;;57.10;21.38;;;;;;;;;;5052581;28;20025;-53
2021/12/09 06:12:32;;;;;;;59.13;19.65;;;;;;;;;;5048467;28;20032;-55
2021/12/09 06:14:58;;;;;;;57.33;20.73;;;;;;;;;;5050329;28;20044;-53
2021/12/09 06:17:24;;;;;;;62.08;22.20;;;;;;;;;;5052018;28;20447;-51
2021/12/09 06:19:50;;;;;;;51.13;20.70;;;;;;;;;;5053723;28;20108;-55
2021/12/09 06:22:16;;;;;;;56.67;20.85;;;;;;;;;;5049905;28;20048;-51
2021/12/09 06:24:44;;;;;;;57.08;20.52;;;;;;;;;;5054327;28;20031;-52
2021/12/09 06:27:10;;;;;;;55.92;20.73;;;;;;;;;;5052278;28;20032;-53
2021/12/09 06:29:36;;;;;;;58.67;20.65;;;;;;;;;;5051104;28;20032;-52
2021/12/09 06:32:02;;;;;;;53.10;20.10;;;;;;;;;;5054503;28;20017;-52
2021/12/09 06:34:29;;;;;;;52.75;20.35;;;;;;;;;;5053271;28;20124;-51
2021/12/09 06:36:55;;;;;;;62.80;21.38;;;;;;;;;;5054391;28;20032;-56
2021/12/09 06:39:21;;;;;;;70.00;21.55;;;;;;;;;;5051944;28;20086;-50
2021/12/09 06:41:47;;;;;;;57.72;19.63;;;;;;;;;;5054244;28;20057;-53
2021/12/09 06:44:13;;;;;;;65.45;22.45;;;;;;;;;;5052220;28;20511;-52
2021/12/09 06:46:39;;;;;;;65.85;20.95;;;;;;;;;;5054520;28;20752;-52
2021/12/09 06:49:06;;;;;;;58.70;20.88;;;;;;;;;;5053229;28;20033;-53
2021/12/09 06:51:32;;;;;;;63.40;21.77;;;;;;;;;;5046951;28;20071;-52
2021/12/09 06:53:58;;;;;;;61.53;22.33;;;;;;;;;;5050470;28;20445;-53
2021/12/09 06:56:25;;;;;;;55.85;20.90;;;;;;;;;;5051393;28;20075;-56
2021/12/09 06:58:51;;;;;;;63.60;20.45;;;;;;;;;;5053714;28;20043;-54
2021/12/09 07:01:17;;;;;;;59.80;20.58;;;;;;;;;;5052949;28;20032;-53
2021/12/09 07:03:43;;;;;;;63.30;20.38;;;;;;;;;;5054058;28;20087;-54
2021/12/09 07:06:11;;;;;;;68.47;22.83;;;;;;;;;;5054410;28;20033;-52
2021/12/09 07:08:44;;;;;;;60.42;20.13;;;;;;;;;;5049350;28;20070;-54
2021/12/09 07:11:10;;;;;;;55.67;18.75;;;;;;;;;;5049962;28;20021;-55
2021/12/09 07:13:36;;;;;;;55.92;20.63;;;;;;;;;;5053931;28;20033;-57
2021/12/09 07:16:02;;;;;;;60.63;21.67;;;;;;;;;;5054037;28;20507;-53
2021/12/09 07:18:28;;;;;;;60.30;22.02;;;;;;;;;;5044382;28;20033;-55
2021/12/09 07:20:55;;;;;;;62.45;21.25;;;;;;;;;;5054033;28;20025;-57
2021/12/09 07:23:21;;;;;;;56.47;20.45;;;;;;;;;;5052481;28;21640;-55
2021/12/09 07:25:47;;;;;;;59.47;22.02;;;;;;;;;;5049995;28;20025;-54
2021/12/09 07:28:13;;;;;;;63.55;21.42;;;;;;;;;;5047665;28;20021;-51
2021/12/09 07:30:39;;;;;;;63.60;20.88;;;;;;;;;;5048648;28;20181;-52
2021/12/09 07:33:06;;;;;;;55.50;20.88;;;;;;;;;;5049309;28;21528;-52
2021/12/09 07:35:32;;;;;;;67.95;22.70;;;;;;;;;;5048586;28;20047;-53
2021/12/09 07:37:58;;;;;;;55.38;20.73;;;;;;;;;;5049591;28;20141;-55
2021/12/09 07:40:25;;;;;;;59.00;20.58;;;;;;;;;;5050319;28;20068;-53
2021/12/09 07:42:51;;;;;;;58.08;22.35;;;;;;;;;;5053309;28;20028;-52
2021/12/09 07:45:17;;;;;;;67.35;22.23;;;;;;;;;;5053181;28;20048;-51
2021/12/09 07:47:44;;;;;;;62.28;22.17;;;;;;;;;;5048899;28;20428;-52
2021/12/09 07:50:13;;;;;;;57.53;20.13;;;;;;;;;;5045480;28;20021;-52
2021/12/09 07:52:40;;;;;;;62.83;22.23;;;;;;;;;;5044181;28;20477;-54
2021/12/09 07:55:06;;;;;;;65.75;24.17;;;;;;;;;;5050850;28;20033;-51
2021/12/09 07:57:33;;;;;;;70.82;22.95;;;;;;;;;;5048096;28;20028;-54
2021/12/09 08:00:00;;;;;;;59.55;21.35;;;;;;;;;;5048834;28;20531;-53
2021/12/09 08:02:26;;;;;;;65.15;22.30;;;;;;;;;;5048403;28;20377;-53
2021/12/09 08:04:52;;;;;;;61.38;22.02;;;;;;;;;;5050223;28;20033;-52
2021/12/09 08:07:18;;;;;;;64.15;22.90;;;;;;;;;;5048369;28;20025;-52
2021/12/09 08:09:44;;;;;;;56.05;19.95;;;;;;;;;;5053499;28;20587;-55
2021/12/09 08:12:10;;;;;;;63.22;22.83;;;;;;;;;;5051925;28;20091;-53
2021/12/09 08:14:36;;;;;;;57.95;21.77;;;;;;;;;;5049335;28;20068;-55
2021/12/09 08:17:12;;;;;;;56.17;19.52;;;;;;;;;;5053699;28;20036;-52
2021/12/09 08:19:38;;;;;;;61.53;22.13;;;;;;;;;;5051772;28;20033;-53
2021/12/09 08:22:04;;;;;;;64.15;22.67;;;;;;;;;;5056505;28;20032;-54
2021/12/09 08:24:30;;;;;;;65.22;21.98;;;;;;;;;;5051182;28;20492;-53
2021/12/09 08:26:56;;;;;;;61.05;21.90;;;;;;;;;;5048324;28;20033;-50
2021/12/09 08:29:22;;;;;;;67.43;22.85;;;;;;;;;;5049419;28;20028;-52
2021/12/09 08:31:48;;;;;;;62.38;21.17;;;;;;;;;;5051789;28;20036;-51
2021/12/09 08:34:21;;;;;;;57.22;20.05;;;;;;;;;;5068371;28;20406;-53
2021/12/09 08:36:47;;;;;;;54.15;20.55;;;;;;;;;;5057974;28;20091;-53
2021/12/09 08:39:13;;;;;;;64.72;22.30;;;;;;;;;;5053090;28;20070;-51
2021/12/09 08:41:39;;;;;;;60.20;22.17;;;;;;;;;;5057071;28;21089;-51
2021/12/09 08:44:06;;;;;;;56.83;21.20;;;;;;;;;;5048302;28;20415;-52
2021/12/09 08:46:33;;;;;;;60.67;20.67;;;;;;;;;;5046085;28;20545;-51
2021/12/09 08:48:59;;;;;;;61.05;21.92;;;;;;;;;;5044744;28;20104;-54
2021/12/09 08:51:25;;;;;;;63.97;22.77;;;;;;;;;;5054895;28;20128;-50
2021/12/09 08:53:52;;;;;;;55.45;20.20;;;;;;;;;;5056909;28;20449;-51
2021/12/09 08:56:18;;;;;;;67.85;23.00;;;;;;;;;;5055123;28;20098;-52
2021/12/09 08:58:44;;;;;;;64.68;22.40;;;;;;;;;;5056755;28;20028;-51
2021/12/09 09:01:12;;;;;;;65.93;22.38;;;;;;;;;;5048570;28;20421;-51
2021/12/09 09:03:38;;;;;;;60.22;22.38;;;;;;;;;;5049016;28;20673;-51
2021/12/09 09:06:04;;;;;;;64.35;21.63;;;;;;;;;;5048984;28;20414;-56
2021/12/09 09:08:30;;;;;;;63.92;21.70;;;;;;;;;;5037018;28;20037;-55
2021/12/09 09:10:56;;;;;;;62.22;22.13;;;;;;;;;;5050742;28;20073;-52
2021/12/09 09:13:23;;;;;;;58.70;20.58;;;;;;;;;;5049805;28;20366;-54
2021/12/09 09:15:49;;;;;;;61.90;21.05;;;;;;;;;;5052341;28;20017;-54
2021/12/09 09:18:16;;;;;;;66.82;23.15;;;;;;;;;;5049696;28;20033;-52
2021/12/09 09:20:42;;;;;;;60.15;22.02;;;;;;;;;;5053461;28;20040;-54
2021/12/09 09:23:11;;;;;;;56.15;20.60;;;;;;;;;;5048881;28;20033;-51
2021/12/09 09:25:37;;;;;;;57.78;20.45;;;;;;;;;;5052501;28;20032;-53
2021/12/09 09:28:03;;;;;;;57.40;20.40;;;;;;;;;;5053759;28;20029;-53
2021/12/09 09:30:35;;;;;;;57.78;21.05;;;;;;;;;;5047483;28;21070;-54
2021/12/09 09:33:01;;;;;;;61.13;21.33;;;;;;;;;;5046435;28;20124;-54
2021/12/09 09:35:27;;;;;;;56.97;21.63;;;;;;;;;;5047383;28;20021;-53
2021/12/09 09:37:53;;;;;;;60.85;22.45;;;;;;;;;;5047059;28;20096;-53
2021/12/09 09:40:27;;;;;;;56.45;20.40;;;;;;;;;;5045747;28;20021;-50
2021/12/09 09:42:58;;;;;;;55.90;20.25;;;;;;;;;;5046942;28;20053;-52
2021/12/09 09:45:24;;;;;;;62.53;21.88;;;;;;;;;;5026482;28;20045;-53
2021/12/09 09:47:50;;;;;;;60.92;21.25;;;;;;;;;;5033479;28;20037;-50
2021/12/09 09:50:17;;;;;;;59.92;21.67;;;;;;;;;;5025217;28;20030;-50
2021/12/09 09:52:43;;;;;;;62.65;22.80;;;;;;;;;;5028234;28;20045;-50
2021/12/09 09:55:13;;;;;;;57.80;22.77;;;;;;;;;;5034315;28;20029;-55
2021/12/09 09:57:39;;;;;;;69.30;22.08;;;;;;;;;;5034015;28;21310;-51
2021/12/09 10:00:07;;;;;;;58.75;21.60;;;;;;;;;;5031623;28;20030;-52
2021/12/09 10:02:33;;;;;;;56.05;21.20;;;;;;;;;;5029547;28;20485;-53
2021/12/09 10:05:01;;;;;;;56.40;20.98;;;;;;;;;;5033416;28;20025;-52
2021/12/09 10:07:28;;;;;;;55.58;18.90;;;;;;;;;;5029670;28;20122;-50
2021/12/09 10:09:54;;;;;;;61.72;20.63;;;;;;;;;;5033112;28;20052;-53
2021/12/09 10:12:21;;;;;;;60.33;21.33;;;;;;;;;;5030331;28;20047;-54
2021/12/09 10:14:48;;;;;;;56.30;20.55;;;;;;;;;;5027517;28;20043;-56
2021/12/09 10:17:16;;;;;;;57.63;21.58;;;;;;;;;;5029044;28;20100;-55
2021/12/09 10:19:50;;;;;;;53.47;21.13;;;;;;;;;;5032693;28;20041;-53
2021/12/09 10:22:20;;;;;;;56.13;21.35;;;;;;;;;;5030922;28;20021;-56
2021/12/09 10:24:47;;;;;;;56.72;20.83;;;;;;;;;;5028978;28;20649;-56
2021/12/09 10:27:24;;;;;;;52.28;21.63;;;;;;;;;;5032146;28;20041;-52
2021/12/09 10:29:51;;;;;;;56.35;22.17;;;;;;;;;;5029815;28;20477;-54
2021/12/09 10:32:20;;;;;;;59.03;21.88;;;;;;;;;;5030532;28;20050;-53
2021/12/09 10:34:48;;;;;;;52.92;21.00;;;;;;;;;;5033833;28;20049;-54
2021/12/09 10:37:14;;;;;;;60.50;22.00;;;;;;;;;;5032844;28;20508;-53
2021/12/09 10:39:46;;;;;;;54.92;21.55;;;;;;;;;;5026676;28;20025;-52
2021/12/09 10:42:17;;;;;;;61.70;22.40;;;;;;;;;;5029114;28;20366;-55
2021/12/09 10:44:58;;;;;;;54.50;20.73;;;;;;;;;;5023987;28;20060;-50
2021/12/09 10:50:20;;;;;;;58.85;21.55;;;;;;;;;;5032862;28;20048;-53
2021/12/09 10:52:53;;;;;;;56.90;21.50;;;;;;;;;;5026062;28;20036;-56
2021/12/09 10:55:21;;;;;;;63.65;22.60;;;;;;;;;;5031422;28;20022;-56
2021/12/09 10:57:55;;;;;;;62.67;22.98;;;;;;;;;;5030681;28;20030;-54
2021/12/09 11:00:23;;;;;;;53.38;20.38;;;;;;;;;;5031316;28;20037;-53
2021/12/09 11:03:14;;;;;;;58.67;21.58;;;;;;;;;;5028546;28;20072;-56
2021/12/09 11:05:42;;;;;;;55.47;21.30;;;;;;;;;;5030423;28;20065;-51
2021/12/09 11:08:16;;;;;;;56.90;20.88;;;;;;;;;;5032251;28;20044;-53
2021/12/09 11:10:47;;;;;;;54.15;21.25;;;;;;;;;;5030211;28;20033;-54
2021/12/09 11:13:13;;;;;;;52.17;21.40;;;;;;;;;;5030227;28;20041;-53
2021/12/09 11:15:54;;;;;;;60.88;21.45;;;;;;;;;;5032835;28;20021;-56
2021/12/09 11:18:45;;;;;;;59.35;21.45;;;;;;;;;;5031780;28;20108;-54
2021/12/09 11:21:17;;;;;;;59.47;21.85;;;;;;;;;;5023263;28;20513;-51
2021/12/09 11:23:45;;;;;;;61.72;21.73;;;;;;;;;;5022736;28;20044;-51
2021/12/09 11:27:16;;;;;;;56.55;21.98;;;;;;;;;;5029632;28;20026;-50
2021/12/09 11:29:23;;;;;;;57.90;21.98;;;;;;;;;;5018047;28;20069;-52
2021/12/09 11:32:07;;;;;;;57.95;21.17;;;;;;;;;;5030845;28;20021;-53
2021/12/09 11:34:42;;;;;;;55.60;21.15;;;;;;;;;;5027948;28;20421;-51
2021/12/09 11:37:33;;;;;;;53.53;19.98;;;;;;;;;;5025547;28;20025;-52
2021/12/09 11:40:00;;;;;;;55.03;20.45;;;;;;;;;;5031888;28;20049;-51
2021/12/09 11:42:33;;;;;;;55.05;21.52;;;;;;;;;;5032680;28;20116;-53
2021/12/09 11:44:59;;;;;;;52.90;20.77;;;;;;;;;;5027532;28;20033;-54
2021/12/09 11:47:25;;;;;;;53.78;19.50;;;;;;;;;;5035503;28;20369;-52
2021/12/09 11:49:52;;;;;;;53.38;21.25;;;;;;;;;;5036181;28;20040;-51
2021/12/09 11:52:18;;;;;;;55.42;21.02;;;;;;;;;;5036372;28;20025;-53
2021/12/09 11:54:54;;;;;;;55.72;20.20;;;;;;;;;;5034772;28;20096;-51
2021/12/09 12:11:54;;;;;;;55.40;20.30;;;;;;;;;;5029941;28;20376;-51
2021/12/09 12:14:35;;;;;;;56.53;19.80;;;;;;;;;;5031693;28;20025;-53
2021/12/09 12:17:18;;;;;;;45.63;19.50;;;;;;;;;;5027346;28;20108;-51
2021/12/09 12:23:11;;;;;;;57.95;21.00;;;;;;;;;;5010164;28;20356;-50
2021/12/09 12:28:36;;;;;;;61.75;20.42;;;;;;;;;;5015448;28;20083;-54
2021/12/09 12:31:39;;;;;;;53.60;20.95;;;;;;;;;;5028604;28;20041;-50
2021/12/09 12:39:34;;;;;;;61.35;22.17;;;;;;;;;;5027265;28;20392;-56
2021/12/09 12:42:04;;;;;;;56.10;21.05;;;;;;;;;;5025781;28;20033;-56
2021/12/09 12:44:31;;;;;;;55.35;20.50;;;;;;;;;;5036974;28;20040;-54
2021/12/09 12:47:16;;;;;;;50.10;19.73;;;;;;;;;;5038690;28;20061;-56
2021/12/09 12:50:02;;;;;;;56.95;21.35;;;;;;;;;;5033631;28;20032;-55
2021/12/09 12:52:31;;;;;;;52.40;19.75;;;;;;;;;;5020479;28;20105;-51
2021/12/09 12:55:11;;;;;;;62.05;21.63;;;;;;;;;;5037964;28;20025;-53
2021/12/09 12:57:41;;;;;;;54.55;21.27;;;;;;;;;;5043528;28;20083;-52
2021/12/09 13:00:18;;;;;;;57.58;19.98;;;;;;;;;;5039187;28;20024;-53
2021/12/09 13:10:48;;;;;;;56.67;25.35;;;;;;;;;;5035230;28;20466;-52
2021/12/09 13:16:34;;;;;;;62.63;21.65;;;;;;;;;;5032516;28;20033;-51
2021/12/09 13:19:08;;;;;;;;;;;;;;;;;;5035299;28;20029;-54
2021/12/09 13:21:35;;;;;;;66.22;24.52;;;;;;;;;;5030343;28;19909;-50
2021/12/09 13:24:20;;;;;;;61.08;22.48;;;;;;;;;;5032646;28;20411;-50
2021/12/09 13:27:32;;;;;;;63.72;23.65;;;;;;;;;;5034501;28;20060;-51
2021/12/09 13:30:34;;;;;;;64.93;23.23;;;;;;;;;;5034557;28;20110;-54
2021/12/09 13:46:29;;;;;;;74.60;25.27;;;;;;;;;;5032680;28;20064;-50
2021/12/09 13:49:19;;;;;;;78.15;28.80;;;;;;;;;;5030402;28;20060;-54
2021/12/09 13:54:27;;;;;;;60.17;22.85;;;;;;;;;;5034999;28;20512;-54
2021/12/09 13:57:01;;;;;;;60.70;22.33;;;;;;;;;;5036538;28;20072;-54
2021/12/09 13:59:28;;;;;;;70.43;22.65;;;;;;;;;;5034159;28;20049;-51
2021/12/09 14:01:55;;;;;;;61.42;20.95;;;;;;;;;;5036449;28;20018;-55
2021/12/09 14:04:23;;;;;;;66.05;22.77;;;;;;;;;;5031725;28;20104;-55
2021/12/09 14:07:05;;;;;;;65.03;22.65;;;;;;;;;;5036744;28;20017;-51
2021/12/09 14:09:32;;;;;;;54.72;21.50;;;;;;;;;;5032744;28;20069;-55
2021/12/09 14:11:59;;;;;;;55.63;21.00;;;;;;;;;;5033814;28;20026;-52
2021/12/09 14:14:36;;;;;;;56.97;22.13;;;;;;;;;;5036965;28;20057;-53
2021/12/09 14:17:04;;;;;;;57.22;21.83;;;;;;;;;;5041976;28;20026;-51
2021/12/09 14:22:01;;;;;;;57.75;22.95;;;;;;;;;;5033618;28;20424;-52
2021/12/09 14:24:29;;;;;;;62.17;27.35;;;;;;;;;;5033016;28;20022;-50
2021/12/09 14:26:59;;;;;;;68.38;28.95;;;;;;;;;;5032567;28;20108;-53
2021/12/09 14:29:26;;;;;;;61.63;24.25;;;;;;;;;;5023104;28;20040;-52
2021/12/09 14:31:56;;;;;;;59.90;22.75;;;;;;;;;;5022291;28;20040;-50
2021/12/09 14:34:23;;;;;;;53.38;20.95;;;;;;;;;;5028643;28;20493;-52
2021/12/09 14:36:51;;;;;;;60.20;21.48;;;;;;;;;;5033528;28;20068;-50
2021/12/09 14:39:19;;;;;;;63.00;23.17;;;;;;;;;;5024010;28;20481;-50
2021/12/09 14:41:45;;;;;;;65.13;22.08;;;;;;;;;;5026384;28;20528;-52
2021/12/09 14:44:11;;;;;;;55.05;21.58;;;;;;;;;;5033162;28;20461;-56
2021/12/09 14:46:39;;;;;;;54.80;21.10;;;;;;;;;;5035270;28;20041;-51
2021/12/09 14:49:19;;;;;;;61.60;22.75;;;;;;;;;;5032193;28;20159;-55
2021/12/09 14:51:46;;;;;;;58.65;22.42;;;;;;;;;;5031450;28;20045;-52
2021/12/09 14:54:13;;;;;;;63.22;21.05;;;;;;;;;;5024117;28;20097;-52
2021/12/09 14:56:42;;;;;;;58.78;22.60;;;;;;;;;;5021402;28;20044;-53
2021/12/09 14:59:22;;;;;;;54.47;22.05;;;;;;;;;;5026099;28;20548;-54
2021/12/09 15:01:56;;;;;;;63.92;22.60;;;;;;;;;;5024666;28;20032;-51
2021/12/09 15:04:30;;;;;;;65.25;23.33;;;;;;;;;;5027221;28;20029;-55
2021/12/09 15:06:59;;;;;;;62.05;24.17;;;;;;;;;;5024964;28;20490;-56
2021/12/09 15:09:25;;;;;;;59.63;21.55;;;;;;;;;;5028829;28;20041;-52
2021/12/09 15:11:57;;;;;;;63.50;23.90;;;;;;;;;;5027593;28;20501;-55
2021/12/09 15:14:25;;;;;;;59.03;21.35;;;;;;;;;;5025794;28;20174;-56
2021/12/09 15:17:05;;;;;;;52.97;21.40;;;;;;;;;;5026520;28;20038;-55
2021/12/09 15:19:31;;;;;;;67.43;22.65;;;;;;;;;;5023431;28;20045;-55
2021/12/09 15:22:10;;;;;;;64.03;23.10;;;;;;;;;;5026445;28;20427;-56
2021/12/09 15:24:36;;;;;;;65.00;23.00;;;;;;;;;;5028188;28;20045;-55
2021/12/09 15:27:02;;;;;;;65.45;23.13;;;;;;;;;;5029193;28;20044;-55
2021/12/09 15:29:29;;;;;;;56.55;22.83;;;;;;;;;;5025164;28;20032;-55